Time;durP1;ratioP1;P1;durP2;ratioP2;P2;SDS_P1;SDS_P2;PMS_P1;PMS_P2;Temp;Humidity;BMP_temperature;BMP_pressure;BME280_temperature;BME280_humidity;BME280_pressure;Samples;Min_cycle;Max_cycle;Signal;HPM_P1;HPM_P2
2022/12/04 00:00:45;;;;;;;;;;;;;;;2.85;85.64;99013.53;10213790;23;19931;-74
2022/12/04 00:05:17;;;;;;;;;;;;;;;2.86;85.61;99002.44;10218039;23;20002;-74
2022/12/04 00:09:22;;;;;;;;;;;;;;;2.87;85.68;99006.75;10219528;23;19947;-74
2022/12/04 00:13:24;;;;;;;;;;;;;;;2.85;85.64;99008.41;10194175;23;19967;-75
2022/12/04 00:17:27;;;;;;;;;;;;;;;2.83;85.24;99008.38;10215295;23;19920;-75
2022/12/04 00:21:28;;;;;;;;;;;;;;;2.83;85.86;98998.13;10200007;23;19924;-75
2022/12/04 00:25:30;;;;;;;;;;;;;;;2.84;85.69;98994.72;10223583;23;19964;-75
2022/12/04 00:29:36;;;;;;;;;;;;;;;2.80;85.47;98990.38;10224917;23;19920;-74
2022/12/04 00:37:50;;;;;;;;;;;;;;;2.75;85.79;98997.13;10243614;23;19920;-74
2022/12/04 00:41:56;;;;;;;;;;;;;;;2.74;85.45;99000.53;10219061;23;20283;-74
2022/12/04 00:45:58;;;;;;;;;;;;;;;2.69;85.49;98994.41;10210923;23;20284;-74
2022/12/04 00:49:59;;;;;;;;;;;;;;;2.65;85.55;98990.94;10222616;23;19982;-74
2022/12/04 00:54:01;;;;;;;;;;;;;;;2.62;86.08;98990.00;10222331;23;19953;-75
2022/12/04 00:58:02;;;;;;;;;;;;;;;2.58;86.02;98996.78;10221542;23;19982;-75
2022/12/04 01:02:03;;;;;;;;;;;;;;;2.59;86.35;98995.94;10213046;23;19931;-75
2022/12/04 01:06:06;;;;;;;;;;;;;;;2.58;86.44;98994.22;10218387;23;20391;-74
2022/12/04 01:10:11;;;;;;;;;;;;;;;2.59;86.50;99008.75;10192115;23;19966;-74
2022/12/04 01:14:12;;;;;;;;;;;;;;;2.59;86.57;99011.31;10190497;23;20530;-74
2022/12/04 01:18:14;;;;;;;;;;;;;;;2.57;86.80;99007.00;10210075;23;19924;-74
2022/12/04 01:22:17;;;;;;;;;;;;;;;2.59;86.78;99007.88;10217337;23;20133;-74
2022/12/04 01:26:18;;;;;;;;;;;;;;;2.57;86.52;99000.16;10219189;23;20268;-74
2022/12/04 01:30:23;;;;;;;;;;;;;;;2.57;86.48;99012.13;10213795;23;20338;-74
2022/12/04 01:34:24;;;;;;;;;;;;;;;2.59;86.20;99008.75;10219603;23;20717;-74
2022/12/04 01:38:26;;;;;;;;;;;;;;;2.62;86.43;99001.13;10219639;23;20347;-74
2022/12/04 01:42:29;;;;;;;;;;;;;;;2.61;86.17;99009.66;10218638;23;19924;-74
2022/12/04 01:46:31;;;;;;;;;;;;;;;2.59;86.50;99000.19;10211077;23;19924;-74
2022/12/04 01:50:34;;;;;;;;;;;;;;;2.57;86.14;98995.03;10217786;23;19928;-74
2022/12/04 01:54:38;;;;;;;;;;;;;;;2.61;86.31;98994.28;10217906;23;19924;-74
2022/12/04 01:58:43;;;;;;;;;;;;;;;2.61;86.66;98989.16;10218917;23;19924;-74
2022/12/04 02:02:47;;;;;;;;;;;;;;;2.65;86.43;98988.38;10209812;23;20225;-74
2022/12/04 02:06:51;;;;;;;;;;;;;;;2.62;86.11;98980.63;10217226;23;20359;-74
2022/12/04 02:10:59;;;;;;;;;;;;;;;2.58;85.99;98981.41;10219119;23;19924;-75
2022/12/04 02:15:11;;;;;;;;;;;;;;;2.56;85.92;98984.78;10217578;23;20239;-74
2022/12/04 02:19:33;;;;;;;;;;;;;;;2.56;85.84;98989.91;10219869;23;20002;-75
2022/12/04 02:23:56;;;;;;;;;;;;;;;2.56;86.02;98987.31;10193536;23;19924;-75
2022/12/04 02:28:05;;;;;;;;;;;;;;;2.56;85.98;98988.19;10219524;23;19959;-74
2022/12/04 02:32:08;;;;;;;;;;;;;;;2.55;86.04;98990.72;10203680;23;19978;-74
2022/12/04 02:36:28;;;;;;;;;;;;;;;2.55;86.06;99003.53;10215787;23;20670;-74
2022/12/04 02:40:34;;;;;;;;;;;;;;;2.54;85.74;99002.69;10220716;23;19998;-75
2022/12/04 02:44:38;;;;;;;;;;;;;;;2.53;85.63;99003.50;10221086;23;19995;-75
2022/12/04 02:48:41;;;;;;;;;;;;;;;2.53;85.53;99002.66;10219748;23;19928;-74
2022/12/04 02:52:46;;;;;;;;;;;;;;;2.50;85.61;98995.72;10225319;23;19955;-74
2022/12/04 02:56:49;;;;;;;;;;;;;;;2.50;85.57;98997.44;10225723;23;20011;-75
2022/12/04 03:05:42;;;;;;;;;;;;;;;2.48;85.62;98999.97;10224240;23;19932;-74
2022/12/04 03:09:50;;;;;;;;;;;;;;;2.47;85.61;98998.22;10228208;23;19924;-74
2022/12/04 03:13:59;;;;;;;;;;;;;;;2.44;85.47;99005.84;10226628;23;19928;-74
2022/12/04 03:18:08;;;;;;;;;;;;;;;2.45;85.55;99002.47;10218063;23;19956;-74
2022/12/04 03:22:12;;;;;;;;;;;;;;;2.44;85.12;98998.19;10200557;23;20634;-74
2022/12/04 03:26:22;;;;;;;;;;;;;;;2.45;85.13;98996.47;10250288;23;19959;-74
2022/12/04 03:30:23;;;;;;;;;;;;;;;2.43;85.27;98984.50;10194876;23;19932;-75
2022/12/04 03:34:58;;;;;;;;;;;;;;;2.42;85.14;98979.34;10226654;23;20006;-74
2022/12/04 03:39:07;;;;;;;;;;;;;;;2.39;85.21;98981.84;10153094;23;20418;-75
2022/12/04 03:43:27;;;;;;;;;;;;;;;2.37;85.04;98981.81;10178304;23;19935;-74
2022/12/04 03:47:59;;;;;;;;;;;;;;;2.38;85.24;98990.38;10169973;23;19920;-74
2022/12/04 04:02:01;;;;;;;;;;;;;;;2.36;85.04;98984.34;10169062;23;20474;-75
2022/12/04 04:06:15;;;;;;;;;;;;;;;2.31;84.73;98968.84;10153368;23;19924;-74
2022/12/04 04:10:18;;;;;;;;;;;;;;;2.30;84.84;98972.25;10152750;23;20807;-75
2022/12/04 04:32:47;;;;;;;;;;;;;;;2.25;85.06;98970.44;10167051;23;19924;-75
2022/12/04 04:37:31;;;;;;;;;;;;;;;2.29;85.59;98975.66;10146724;23;19951;-74
2022/12/04 04:41:44;;;;;;;;;;;;;;;2.30;85.33;98968.81;10146831;23;19924;-74
2022/12/04 04:45:50;;;;;;;;;;;;;;;2.26;85.23;98970.47;10138679;23;19925;-75
2022/12/04 04:49:53;;;;;;;;;;;;;;;2.22;84.93;98976.34;10172564;23;20000;-75
2022/12/04 04:53:58;;;;;;;;;;;;;;;2.21;85.46;98984.88;10146901;23;19925;-74
2022/12/04 04:58:06;;;;;;;;;;;;;;;2.23;85.82;98990.91;10147061;23;20617;-74
2022/12/04 05:02:13;;;;;;;;;;;;;;;2.25;85.89;98989.22;10089071;23;19925;-75
2022/12/04 05:06:16;;;;;;;;;;;;;;;2.22;85.59;99001.97;10047630;23;19984;-74
2022/12/04 05:10:18;;;;;;;;;;;;;;;2.22;85.67;99001.97;10025625;23;19929;-75
2022/12/04 05:14:20;;;;;;;;;;;;;;;2.24;85.61;99008.00;10048412;23;19935;-74
2022/12/04 05:18:22;;;;;;;;;;;;;;;2.25;85.39;99009.72;10073461;23;19981;-75
2022/12/04 05:22:26;;;;;;;;;;;;;;;2.26;86.06;99013.16;10052313;23;19984;-75
2022/12/04 05:26:28;;;;;;;;;;;;;;;2.25;86.15;99004.59;10053523;23;19925;-75
2022/12/04 05:30:29;;;;;;;;;;;;;;;2.26;86.02;99024.25;10070163;23;19931;-75
2022/12/04 05:34:30;;;;;;;;;;;;;;;2.23;85.71;99018.19;10030977;23;19968;-75
2022/12/04 05:38:32;;;;;;;;;;;;;;;2.22;85.93;99016.47;10006997;23;19961;-75
2022/12/04 05:42:34;;;;;;;;;;;;;;;2.19;86.22;99017.28;10029791;23;19981;-75
2022/12/04 05:46:39;;;;;;;;;;;;;;;2.19;85.85;99012.16;9998697;23;19988;-74
2022/12/04 05:55:43;;;;;;;;;;;;;;;2.15;86.03;99005.22;10113781;23;19925;-74
2022/12/04 05:59:46;;;;;;;;;;;;;;;2.16;86.44;98998.41;10170596;23;19959;-74
2022/12/04 06:03:49;;;;;;;;;;;;;;;2.16;86.44;98994.16;10101907;23;19972;-74
2022/12/04 06:07:50;;;;;;;;;;;;;;;2.18;86.59;98984.81;10101552;23;19924;-74
2022/12/04 06:11:55;;;;;;;;;;;;;;;2.17;86.50;98982.22;10102710;23;19936;-74
2022/12/04 06:15:58;;;;;;;;;;;;;;;2.16;85.62;98995.84;10085765;23;20378;-74
2022/12/04 06:20:00;;;;;;;;;;;;;;;2.14;86.18;98988.13;10196872;23;20327;-74
2022/12/04 06:24:14;;;;;;;;;;;;;;;2.17;86.35;98993.31;10195847;23;19995;-74
2022/12/04 06:28:15;;;;;;;;;;;;;;;2.18;86.40;99004.44;10197373;23;20371;-74
2022/12/04 06:32:17;;;;;;;;;;;;;;;2.13;86.32;99002.63;10167545;23;19932;-74
2022/12/04 06:36:22;;;;;;;;;;;;;;;2.17;86.42;99011.25;10197340;23;19924;-74
2022/12/04 06:40:27;;;;;;;;;;;;;;;2.19;86.29;99003.59;10224455;23;20019;-74
2022/12/04 06:44:28;;;;;;;;;;;;;;;2.20;86.62;99013.00;10196554;23;19983;-75
2022/12/04 06:48:30;;;;;;;;;;;;;;;2.20;86.04;99013.00;10193824;23;19947;-74
2022/12/04 06:52:32;;;;;;;;;;;;;;;2.20;86.17;99013.00;10201102;23;19931;-75
2022/12/04 06:56:34;;;;;;;;;;;;;;;2.20;85.81;99013.00;10200783;23;19925;-74
2022/12/04 07:00:35;;;;;;;;;;;;;;;2.20;86.48;99016.44;10220752;23;19924;-75
2022/12/04 07:04:36;;;;;;;;;;;;;;;2.21;86.63;99014.75;10175168;23;19938;-75
2022/12/04 07:08:38;;;;;;;;;;;;;;;2.21;86.07;99009.63;10228661;23;19974;-75
2022/12/04 07:12:39;;;;;;;;;;;;;;;2.17;85.52;99011.25;10228037;23;19935;-75
2022/12/04 07:16:41;;;;;;;;;;;;;;;2.14;85.98;99026.53;10201776;23;19959;-75
2022/12/04 07:20:43;;;;;;;;;;;;;;;2.10;86.09;99032.41;10227966;23;19967;-75
2022/12/04 07:24:44;;;;;;;;;;;;;;;2.08;86.07;99032.38;10177481;23;20078;-75
2022/12/04 07:28:45;;;;;;;;;;;;;;;2.07;86.47;99038.34;10200753;23;19928;-75
2022/12/04 07:32:47;;;;;;;;;;;;;;;2.05;86.35;99041.69;10192117;23;20257;-75
2022/12/04 07:36:48;;;;;;;;;;;;;;;2.04;86.30;99043.38;10177416;23;19934;-75
2022/12/04 07:40:49;;;;;;;;;;;;;;;2.09;86.20;99046.03;10202622;23;19924;-75
2022/12/04 07:45:04;;;;;;;;;;;;;;;2.10;86.22;99046.09;10229196;23;19963;-76
2022/12/04 07:49:05;;;;;;;;;;;;;;;2.10;86.64;99042.66;10226976;23;20000;-76
2022/12/04 07:53:06;;;;;;;;;;;;;;;2.09;86.19;99046.03;10202042;23;19967;-76
2022/12/04 07:57:08;;;;;;;;;;;;;;;2.07;86.39;99047.72;10202001;23;19920;-76
2022/12/04 08:01:11;;;;;;;;;;;;;;;2.05;86.76;99049.38;10194766;23;19992;-76
2022/12/04 08:05:12;;;;;;;;;;;;;;;2.06;86.66;99038.28;10202104;23;19975;-76
2022/12/04 08:09:14;;;;;;;;;;;;;;;2.05;86.51;99042.56;10202125;23;19924;-75
2022/12/04 08:13:15;;;;;;;;;;;;;;;2.08;86.46;99050.31;10202131;23;20061;-76
2022/12/04 08:17:16;;;;;;;;;;;;;;;2.06;86.60;99046.84;10167022;23;19928;-76
2022/12/04 08:21:20;;;;;;;;;;;;;;;2.05;86.71;99064.72;10176406;23;19999;-76
2022/12/04 08:25:21;;;;;;;;;;;;;;;2.05;86.62;99052.78;10200523;23;19956;-76
2022/12/04 08:29:22;;;;;;;;;;;;;;;2.06;86.49;99064.78;10176298;23;20036;-76
2022/12/04 08:33:24;;;;;;;;;;;;;;;2.08;86.76;99058.00;10193262;23;20011;-76
2022/12/04 08:37:26;;;;;;;;;;;;;;;2.11;86.67;99059.75;10200575;23;19964;-76
2022/12/04 08:41:27;;;;;;;;;;;;;;;2.12;86.52;99071.72;10227596;23;19924;-76
2022/12/04 08:45:29;;;;;;;;;;;;;;;2.09;86.89;99069.09;10226440;23;20341;-77
2022/12/04 08:49:30;;;;;;;;;;;;;;;2.09;86.45;99071.66;10210543;23;19935;-76
2022/12/04 08:53:32;;;;;;;;;;;;;;;2.10;86.82;99063.13;10229704;23;20477;-76
2022/12/04 08:57:34;;;;;;;;;;;;;;;2.10;86.95;99065.69;10175267;23;20339;-76
2022/12/04 09:01:36;;;;;;;;;;;;;;;2.11;86.47;99073.41;10168956;23;20213;-76
2022/12/04 09:05:37;;;;;;;;;;;;;;;2.12;86.45;99069.16;10177545;23;19986;-76
2022/12/04 09:09:39;;;;;;;;;;;;;;;2.17;86.21;99069.28;10176698;23;20410;-76
2022/12/04 09:13:48;;;;;;;;;;;;;;;2.18;86.31;99078.72;10202270;23;19931;-76
2022/12/04 09:17:49;;;;;;;;;;;;;;;2.19;86.68;99078.75;10168401;23;19920;-76
2022/12/04 09:21:50;;;;;;;;;;;;;;;2.20;86.40;99079.59;10199902;23;19959;-76
2022/12/04 09:25:52;;;;;;;;;;;;;;;2.18;86.19;99068.47;10200362;23;19963;-76
2022/12/04 09:29:53;;;;;;;;;;;;;;;2.19;86.28;99077.88;10200833;23;19998;-76
2022/12/04 09:33:59;;;;;;;;;;;;;;;2.21;86.25;99074.50;10191410;23;20698;-76
2022/12/04 09:38:02;;;;;;;;;;;;;;;2.24;86.01;99073.72;10221464;23;19994;-76
2022/12/04 09:42:37;;;;;;;;;;;;;;;2.29;86.19;99078.09;10190982;23;20748;-75
2022/12/04 09:46:59;;;;;;;;;;;;;;;2.30;86.38;99069.59;10213092;23;19995;-75
2022/12/04 09:51:02;;;;;;;;;;;;;;;2.34;85.81;99063.72;10193586;23;19923;-76
2022/12/04 09:55:12;;;;;;;;;;;;;;;2.37;85.63;99066.34;10174375;23;20410;-75
2022/12/04 09:59:42;;;;;;;;;;;;;;;2.39;85.81;99057.00;10198193;23;19943;-75
2022/12/04 10:03:46;;;;;;;;;;;;;;;2.41;86.26;99052.78;10222676;23;19978;-76
2022/12/04 10:07:54;;;;;;;;;;;;;;;2.41;86.29;99047.66;10180296;23;19935;-76
2022/12/04 10:12:21;;;;;;;;;;;;;;;2.36;85.43;99043.28;10231340;23;20003;-76
2022/12/04 10:16:48;;;;;;;;;;;;;;;2.33;86.19;99050.84;10197237;23;20374;-76
2022/12/04 10:20:59;;;;;;;;;;;;;;;2.33;85.96;99050.84;10220071;23;19931;-76
2022/12/04 10:25:03;;;;;;;;;;;;;;;2.37;86.03;99037.31;10230753;23;19924;-76
2022/12/04 10:29:07;;;;;;;;;;;;;;;2.41;86.30;99034.84;10179548;23;19936;-76
2022/12/04 10:33:08;;;;;;;;;;;;;;;2.41;86.16;99037.41;10204506;23;19983;-76
2022/12/04 10:37:12;;;;;;;;;;;;;;;2.44;86.17;99026.34;10230838;23;19939;-76
2022/12/04 10:41:22;;;;;;;;;;;;;;;2.46;86.11;99036.63;10204234;23;19920;-76
2022/12/04 10:45:24;;;;;;;;;;;;;;;2.47;86.32;99026.41;10195627;23;19928;-76
2022/12/04 10:49:27;;;;;;;;;;;;;;;2.48;86.19;99022.16;10179563;23;19964;-76
2022/12/04 10:53:30;;;;;;;;;;;;;;;2.49;85.74;99005.94;10177912;23;20220;-76
2022/12/04 10:57:43;;;;;;;;;;;;;;;2.52;86.29;99003.47;10202746;23;20366;-76
2022/12/04 11:01:45;;;;;;;;;;;;;;;2.54;86.47;98999.25;10195742;23;19925;-76
2022/12/04 11:05:54;;;;;;;;;;;;;;;2.54;86.08;98984.75;10179885;23;19924;-77
2022/12/04 11:10:04;;;;;;;;;;;;;;;2.57;86.04;98978.81;10180558;23;19986;-77
2022/12/04 11:14:12;;;;;;;;;;;;;;;2.58;86.21;98976.28;10201863;23;19963;-76
2022/12/04 11:18:17;;;;;;;;;;;;;;;2.59;86.14;98972.88;10172903;23;19935;-76
2022/12/04 11:22:18;;;;;;;;;;;;;;;2.59;85.89;98972.88;10228717;23;19928;-77
2022/12/04 11:26:34;;;;;;;;;;;;;;;2.59;86.06;98982.25;10199764;23;20406;-76
2022/12/04 11:30:37;;;;;;;;;;;;;;;2.59;85.99;98985.69;10231272;23;19970;-76
2022/12/04 11:34:39;;;;;;;;;;;;;;;2.60;85.85;98981.44;10230917;23;19954;-76
2022/12/04 11:38:40;;;;;;;;;;;;;;;2.59;86.20;98989.94;10205309;23;19924;-76
2022/12/04 11:42:42;;;;;;;;;;;;;;;2.60;86.38;98991.69;10201827;23;19986;-76
2022/12/04 11:46:50;;;;;;;;;;;;;;;2.63;86.24;98994.31;10170594;23;19966;-76
2022/12/04 11:51:10;;;;;;;;;;;;;;;2.67;86.48;99003.78;10230247;23;20366;-76
2022/12/04 11:55:17;;;;;;;;;;;;;;;2.68;86.36;99011.50;10204211;23;19935;-76
2022/12/04 11:59:36;;;;;;;;;;;;;;;2.72;86.89;99008.19;10203341;23;19924;-76
2022/12/04 12:03:43;;;;;;;;;;;;;;;2.79;86.60;99013.41;10195256;23;19975;-76
2022/12/04 12:07:52;;;;;;;;;;;;;;;2.82;86.46;99004.09;10203922;23;19920;-76
2022/12/04 12:12:09;;;;;;;;;;;;;;;2.84;86.21;98999.84;10203507;23;19924;-76
2022/12/04 12:16:13;;;;;;;;;;;;;;;2.81;86.11;98989.53;10195455;23;19924;-76
2022/12/04 12:20:22;;;;;;;;;;;;;;;2.85;85.87;98981.06;10229931;23;19928;-76
2022/12/04 12:24:26;;;;;;;;;;;;;;;2.86;86.10;98981.94;10177667;23;19964;-75
2022/12/04 12:28:30;;;;;;;;;;;;;;;2.92;86.46;98980.38;10229812;23;19956;-75
2022/12/04 12:32:42;;;;;;;;;;;;;;;2.96;86.25;98994.13;10195242;23;19947;-75
2022/12/04 12:36:50;;;;;;;;;;;;;;;2.98;86.09;99001.00;10199504;23;19924;-76
2022/12/04 12:41:22;;;;;;;;;;;;;;;2.98;86.21;98995.88;10199997;23;19963;-75
2022/12/04 12:45:45;;;;;;;;;;;;;;;3.00;86.11;98995.91;10191659;23;19991;-75
2022/12/04 12:50:21;;;;;;;;;;;;;;;3.00;86.19;98994.19;10224405;23;20000;-75
2022/12/04 12:54:39;;;;;;;;;;;;;;;3.01;86.11;98992.50;10199328;23;19924;-75
2022/12/04 12:58:42;;;;;;;;;;;;;;;3.02;85.87;98989.09;10222900;23;20000;-75
2022/12/04 13:03:28;;;;;;;;;;;;;;;3.00;85.88;98986.50;10204035;23;20420;-75
2022/12/04 13:07:40;;;;;;;;;;;;;;;3.01;86.21;98972.84;10196094;23;19970;-75
2022/12/04 15:14:03;;;;;;;;;;;;;;;3.09;86.95;98939.66;10228659;23;19943;-75
2022/12/04 15:18:09;;;;;;;;;;;;;;;3.08;86.97;98932.81;10159821;23;19979;-76
2022/12/04 15:22:21;;;;;;;;;;;;;;;3.08;87.21;98934.50;10175227;23;20259;-76
2022/12/04 15:26:27;;;;;;;;;;;;;;;3.07;86.94;98937.91;10175188;23;19935;-76
2022/12/04 15:30:42;;;;;;;;;;;;;;;3.04;86.92;98939.56;10193609;23;19990;-76
2022/12/04 15:34:54;;;;;;;;;;;;;;;3.07;86.96;98940.47;10174557;23;19924;-77
2022/12/04 15:39:04;;;;;;;;;;;;;;;3.07;87.30;98938.78;10230497;23;20683;-76
2022/12/04 15:43:22;;;;;;;;;;;;;;;3.08;87.40;98937.06;10198677;23;20477;-76
2022/12/04 15:47:28;;;;;;;;;;;;;;;3.04;86.94;98937.00;10220422;23;19921;-77
2022/12/04 15:51:30;;;;;;;;;;;;;;;3.05;87.52;98932.72;10202786;23;19955;-77
2022/12/04 15:55:52;;;;;;;;;;;;;;;3.03;87.19;98929.25;10178713;23;19924;-77
2022/12/04 15:59:54;;;;;;;;;;;;;;;3.01;87.34;98921.56;10202920;23;20316;-77
2022/12/04 16:03:55;;;;;;;;;;;;;;;3.02;87.73;98927.53;10191862;23;19971;-77
2022/12/04 16:07:58;;;;;;;;;;;;;;;2.98;87.53;98929.19;10202759;23;19959;-77
2022/12/04 16:12:15;;;;;;;;;;;;;;;3.00;87.60;98934.34;10177830;23;19924;-77
2022/12/04 16:16:20;;;;;;;;;;;;;;;3.02;88.04;98945.50;10195052;23;19928;-76
2022/12/04 16:20:21;;;;;;;;;;;;;;;3.02;88.32;98945.50;10200002;23;19926;-76
2022/12/04 16:24:23;;;;;;;;;;;;;;;3.04;88.33;98948.94;10175024;23;20447;-75
2022/12/04 16:28:24;;;;;;;;;;;;;;;3.05;88.69;98953.25;10225612;23;20302;-76
2022/12/04 16:32:29;;;;;;;;;;;;;;;3.06;88.89;98949.00;10192625;23;19924;-76
2022/12/04 16:36:30;;;;;;;;;;;;;;;3.06;89.67;98949.00;10200517;23;20027;-76
2022/12/04 16:40:31;;;;;;;;;;;;;;;3.06;89.63;98937.03;10228673;23;19979;-76
2022/12/04 16:44:35;;;;;;;;;;;;;;;3.05;90.18;98940.41;10201499;23;19955;-76
2022/12/04 16:48:37;;;;;;;;;;;;;;;3.05;90.81;98940.41;10166590;23;19924;-75
2022/12/04 16:52:39;;;;;;;;;;;;;;;3.05;90.79;98942.97;10224996;23;19955;-75
2022/12/04 16:56:40;;;;;;;;;;;;;;;3.06;90.81;98939.59;10224529;23;19982;-75
2022/12/04 17:00:43;;;;;;;;;;;;;;;3.05;91.15;98935.28;10216064;23;20393;-75
2022/12/04 17:04:45;;;;;;;;;;;;;;;3.01;91.50;98941.19;10224321;23;20271;-75
2022/12/04 17:08:46;;;;;;;;;;;;;;;2.96;92.23;98942.81;10197207;23;19935;-75
2022/12/04 17:12:48;;;;;;;;;;;;;;;2.98;92.30;98942.00;10197459;23;20417;-75
2022/12/04 17:16:50;;;;;;;;;;;;;;;2.95;92.95;98944.53;10190609;23;19987;-74
2022/12/04 17:20:52;;;;;;;;;;;;;;;2.97;92.87;98950.53;10194979;23;19947;-74
2022/12/04 17:24:54;;;;;;;;;;;;;;;2.99;93.32;98959.13;10197128;23;19998;-74
2022/12/04 17:28:56;;;;;;;;;;;;;;;3.02;93.36;98959.19;10172893;23;20011;-74
2022/12/04 17:32:58;;;;;;;;;;;;;;;3.03;93.61;98967.72;10187916;23;20307;-74
2022/12/04 17:36:59;;;;;;;;;;;;;;;3.05;94.06;98966.06;10195903;23;20011;-74
2022/12/04 17:41:01;;;;;;;;;;;;;;;3.06;93.96;98972.94;10172439;23;20663;-74
2022/12/04 17:45:03;;;;;;;;;;;;;;;3.06;94.13;98970.38;10166159;23;19970;-74
2022/12/04 17:49:04;;;;;;;;;;;;;;;3.08;94.15;98971.28;10195784;23;19924;-73
2022/12/04 17:53:07;;;;;;;;;;;;;;;3.07;94.08;98968.69;10195672;23;19924;-74
2022/12/04 17:57:09;;;;;;;;;;;;;;;3.08;94.01;98972.97;10194612;23;19920;-74
2022/12/04 18:01:11;;;;;;;;;;;;;;;3.06;93.89;98972.94;10162896;23;20223;-73
2022/12/04 18:05:13;;;;;;;;;;;;;;;3.04;94.14;98975.47;10194099;23;20007;-73
2022/12/04 18:09:15;;;;;;;;;;;;;;;3.04;94.09;98977.16;10220618;23;19924;-73
2022/12/04 18:13:16;;;;;;;;;;;;;;;3.04;94.22;98978.03;10221327;23;20296;-73
2022/12/04 18:17:19;;;;;;;;;;;;;;;3.02;94.33;98972.00;10164754;23;19924;-72
2022/12/04 18:21:21;;;;;;;;;;;;;;;3.03;94.54;98976.28;10170837;23;19974;-71
2022/12/04 18:25:23;;;;;;;;;;;;;;;3.03;94.49;98976.28;10174008;23;19959;-72
2022/12/04 18:29:25;;;;;;;;;;;;;;;3.02;94.98;98983.97;10224738;23;19974;-71
2022/12/04 18:33:28;;;;;;;;;;;;;;;3.01;94.91;98995.06;10189346;23;19985;-71
2022/12/04 18:37:29;;;;;;;;;;;;;;;3.01;95.02;98995.06;10221698;23;19970;-71
2022/12/04 18:41:31;;;;;;;;;;;;;;;2.94;94.99;98994.09;10195424;23;19928;-72
2022/12/04 18:45:32;;;;;;;;;;;;;;;2.91;95.33;98998.28;10189384;23;19959;-73
2022/12/04 18:49:34;;;;;;;;;;;;;;;2.87;95.22;99010.19;10221865;23;19924;-73
2022/12/04 18:53:35;;;;;;;;;;;;;;;2.87;95.58;99009.31;10197413;23;19951;-73
2022/12/04 18:57:37;;;;;;;;;;;;;;;2.87;95.59;99001.59;10197480;23;19924;-73
2022/12/04 19:01:38;;;;;;;;;;;;;;;2.84;95.76;99007.53;10191973;23;20443;-73
2022/12/04 19:05:49;;;;;;;;;;;;;;;2.84;95.91;99010.09;10198977;23;19978;-73
2022/12/04 19:09:52;;;;;;;;;;;;;;;2.82;95.78;99016.03;10199815;23;20793;-73
2022/12/04 19:14:14;;;;;;;;;;;;;;;2.80;95.83;99018.56;10205708;23;19924;-73
2022/12/04 19:18:23;;;;;;;;;;;;;;;2.74;95.74;99013.34;10190488;23;19955;-73
2022/12/04 19:22:27;;;;;;;;;;;;;;;2.70;96.13;99026.94;10220020;23;19994;-73
2022/12/04 19:26:30;;;;;;;;;;;;;;;2.63;96.31;99027.63;10221615;23;19924;-73
2022/12/04 19:30:32;;;;;;;;;;;;;;;2.55;95.81;99029.16;10187517;23;19951;-73
2022/12/04 19:34:34;;;;;;;;;;;;;;;2.51;96.41;99035.03;10194400;23;20326;-73
2022/12/04 19:38:35;;;;;;;;;;;;;;;2.48;96.24;99040.09;10245195;23;20002;-73
2022/12/04 19:42:37;;;;;;;;;;;;;;;2.44;96.34;99044.28;10195103;23;20012;-73
2022/12/04 19:46:38;;;;;;;;;;;;;;;2.44;96.41;99049.41;10213041;23;20007;-73
2022/12/04 19:50:39;;;;;;;;;;;;;;;2.42;96.29;99049.38;10224035;23;19935;-73
2022/12/04 19:54:41;;;;;;;;;;;;;;;2.30;95.82;99049.09;10223923;23;20292;-73
2022/12/04 19:58:42;;;;;;;;;;;;;;;2.28;96.27;99053.31;10200217;23;19925;-73
2022/12/04 20:02:43;;;;;;;;;;;;;;;2.26;96.75;99056.69;10214278;23;19928;-74
2022/12/04 20:06:45;;;;;;;;;;;;;;;2.22;96.47;99049.78;10223422;23;19928;-73
2022/12/04 20:10:46;;;;;;;;;;;;;;;2.19;96.32;99058.25;10221439;23;19924;-73
2022/12/04 20:14:47;;;;;;;;;;;;;;;2.18;96.08;99055.66;10196395;23;19932;-73
2022/12/04 20:18:49;;;;;;;;;;;;;;;2.18;96.29;99060.78;10213474;23;20268;-74
2022/12/04 20:22:51;;;;;;;;;;;;;;;2.12;96.23;99052.09;10195068;23;19928;-73
2022/12/04 20:26:52;;;;;;;;;;;;;;;2.11;96.55;99052.06;10200565;23;19924;-73
2022/12/04 20:30:53;;;;;;;;;;;;;;;2.02;95.68;99045.06;10247681;23;19924;-72
2022/12/04 20:34:55;;;;;;;;;;;;;;;2.00;96.33;99048.41;10225775;23;19989;-73
2022/12/04 20:38:57;;;;;;;;;;;;;;;1.95;96.20;99052.53;10238297;23;20220;-73
2022/12/04 20:42:58;;;;;;;;;;;;;;;1.90;95.99;99049.88;10212954;23;19924;-73
2022/12/04 20:46:59;;;;;;;;;;;;;;;1.90;96.24;99046.44;10232150;23;19924;-73
2022/12/04 20:51:01;;;;;;;;;;;;;;;1.91;96.58;99049.03;10206363;23;19967;-73
2022/12/04 20:55:03;;;;;;;;;;;;;;;1.92;96.24;99039.66;10204064;23;19921;-73
2022/12/04 20:59:06;;;;;;;;;;;;;;;1.94;96.80;99041.41;10225645;23;19991;-73
2022/12/04 21:03:07;;;;;;;;;;;;;;;1.92;96.50;99047.34;10215655;23;19991;-73
2022/12/04 21:07:09;;;;;;;;;;;;;;;1.91;96.79;99046.47;10196248;23;20585;-73
2022/12/04 21:11:10;;;;;;;;;;;;;;;1.94;96.73;99049.09;10195678;23;19924;-73
2022/12/04 21:19:32;;;;;;;;;;;;;;;1.91;97.25;99041.34;10220276;23;19951;-73
2022/12/04 21:23:34;;;;;;;;;;;;;;;1.92;96.99;99047.34;10219289;23;20674;-73
2022/12/04 21:27:36;;;;;;;;;;;;;;;1.93;97.07;99052.50;10218530;23;19935;-73
2022/12/04 21:31:37;;;;;;;;;;;;;;;1.92;97.54;99050.75;10208945;23;19924;-73
2022/12/04 21:35:38;;;;;;;;;;;;;;;1.92;97.62;99057.56;10243383;23;20315;-73
2022/12/04 21:39:41;;;;;;;;;;;;;;;1.91;97.54;99061.84;10219697;23;19987;-73
2022/12/04 21:43:42;;;;;;;;;;;;;;;1.99;98.05;99065.47;10219972;23;20003;-73
2022/12/04 21:47:44;;;;;;;;;;;;;;;1.97;97.50;99061.09;10213925;23;20280;-72
2022/12/04 21:51:46;;;;;;;;;;;;;;;1.96;98.09;99079.84;10220900;23;19934;-72
2022/12/04 21:56:03;;;;;;;;;;;;;;;1.97;97.92;99071.34;10199045;23;19955;-73
2022/12/04 22:00:04;;;;;;;;;;;;;;;2.00;98.38;99074.00;10214361;23;20022;-72
2022/12/04 22:04:06;;;;;;;;;;;;;;;2.03;98.61;99084.31;10217685;23;19979;-74
2022/12/04 22:08:08;;;;;;;;;;;;;;;2.05;98.88;99077.53;10221713;23;19975;-73
2022/12/04 22:12:09;;;;;;;;;;;;;;;2.06;98.77;99090.38;10196033;23;19920;-73
2022/12/04 22:16:31;;;;;;;;;;;;;;;2.03;98.61;99092.88;10215782;23;19987;-73
2022/12/04 22:20:39;;;;;;;;;;;;;;;2.04;98.87;99088.59;10196993;23;19934;-73
2022/12/04 22:24:41;;;;;;;;;;;;;;;2.10;98.84;99093.88;10196818;23;19962;-73
2022/12/04 22:28:42;;;;;;;;;;;;;;;2.13;99.34;99101.63;10172655;23;19936;-73
2022/12/04 22:32:43;;;;;;;;;;;;;;;2.12;98.67;99105.00;10213998;23;19924;-73
2022/12/04 22:36:47;;;;;;;;;;;;;;;2.07;98.99;99099.78;10196023;23;19959;-73
2022/12/04 22:40:48;;;;;;;;;;;;;;;2.12;99.23;99112.69;10196253;23;19979;-72
2022/12/04 22:44:50;;;;;;;;;;;;;;;2.16;98.94;99111.97;10196303;23;20299;-73
2022/12/04 22:48:51;;;;;;;;;;;;;;;2.20;99.53;99115.47;10163448;23;20304;-73
2022/12/04 22:52:52;;;;;;;;;;;;;;;2.22;99.62;99117.22;10195932;23;19946;-73
2022/12/04 22:56:54;;;;;;;;;;;;;;;2.21;99.26;99125.75;10189455;23;20028;-73
2022/12/04 23:00:55;;;;;;;;;;;;;;;2.13;98.71;99127.22;10189250;23;19924;-73
2022/12/04 23:04:56;;;;;;;;;;;;;;;2.15;99.38;99128.13;10196608;23;19959;-73
2022/12/04 23:08:59;;;;;;;;;;;;;;;2.15;99.08;99125.56;10223151;23;20035;-73
2022/12/04 23:13:00;;;;;;;;;;;;;;;2.16;99.09;99121.34;10221043;23;19940;-73
2022/12/04 23:17:02;;;;;;;;;;;;;;;2.21;98.86;99125.75;10213141;23;19932;-73
2022/12/04 23:21:08;;;;;;;;;;;;;;;2.21;99.13;99127.44;10195718;23;19924;-73
2022/12/04 23:25:09;;;;;;;;;;;;;;;2.20;98.45;99131.69;10195828;23;19924;-72
2022/12/04 23:29:11;;;;;;;;;;;;;;;2.22;98.84;99136.84;10197213;23;19924;-72
2022/12/04 23:33:33;;;;;;;;;;;;;;;2.23;98.83;99143.72;10166669;23;19924;-73
2022/12/04 23:37:34;;;;;;;;;;;;;;;2.20;98.78;99143.63;10194091;23;19924;-73
2022/12/04 23:41:36;;;;;;;;;;;;;;;2.19;99.00;99155.56;10171401;23;19924;-73
2022/12/04 23:45:37;;;;;;;;;;;;;;;2.23;99.35;99157.38;10215252;23;19924;-73
2022/12/04 23:49:38;;;;;;;;;;;;;;;2.25;99.56;99153.16;10173436;23;20344;-73
2022/12/04 23:53:40;;;;;;;;;;;;;;;2.30;99.47;99153.25;10223887;23;20010;-72
2022/12/04 23:57:42;;;;;;;;;;;;;;;2.36;99.30;99164.53;10172920;23;19924;-72
